• Join FlightAware (Why Join?)
  • Login
  • US Flag 
11:49PM EDT


 

Airport Tracker/Info


-or-


 

Live Flight TrackerFlight Track Log ✈ AWE4612 ✈ 19-Mar-2014 ✈ KCHA - KDCA

Flight Track Log - Related Links

Times and Time Zones

All times are in EDT time to prevent confusion due to time zone crossing. See the AWE4612 flight status page for this flight to view local times or setup timezone preferences in your user account.

Time Position Orientation Groundspeed Altitude Reporting Facility
EDT Latitude Longitude Course Direction KTS MPH feet Rate Location/Type
05:20PM 34.9669 -85.0906 89° East 293 337 6,100  Level Atlanta Center
05:21PM 34.9678 -84.9817 89° East 314 361 8,400 2,400 Climbing Atlanta Center
05:22PM 34.9706 -84.8650 88° East 327 376 10,900 2,220 Climbing Atlanta Center
05:23PM 34.9736 -84.7433 88° East 344 396 12,900 2,220 Climbing Atlanta Center
05:24PM 34.9783 -84.5989 88° East 368 423 15,400 2,100 Climbing Atlanta Center
05:25PM 34.9831 -84.4672 87° East 379 436 17,200 1,740 Climbing Atlanta Center
05:26PM 34.9878 -84.3328 88° East 385 443 18,900 1,560 Climbing Atlanta Center
05:27PM 34.9900 -84.1908 89° East 398 458 20,400 1,320 Climbing Atlanta Center
05:28PM 34.9964 -84.0489 87° East 408 470 21,600 1,200 Climbing Atlanta Center
05:29PM 35.0275 -83.9044 75° East 427 491 22,800 1,080 Climbing Atlanta Center
05:30PM 35.0650 -83.7597 72° East 433 498 23,800 900 Climbing Atlanta Center
05:31PM 35.1083 -83.6122 70° East 444 511 24,600 720 Climbing Atlanta Center
05:32PM 35.1433 -83.4750 73° East 450 518 25,300 720 Climbing Atlanta Center
05:33PM 35.1883 -83.3194 70° East 464 534 26,100 900 Climbing Atlanta Center
05:34PM 35.2331 -83.1514 72° East 472 543 27,200 1,020 Climbing Atlanta Center
05:35PM 35.2736 -82.9958 72° East 477 549 28,200 960 Climbing Atlanta Center
05:36PM 35.3119 -82.8578 71° East 477 549 29,200 960 Climbing Atlanta Center
05:37PM 35.3542 -82.7069 71° East 472 543 30,200 780 Climbing Atlanta Center
05:38PM 35.3964 -82.5558 71° East 467 537 30,800 540 Climbing Atlanta Center
05:39PM 35.4361 -82.3997 73° East 467 537 31,300 480 Climbing Atlanta Center
05:40PM 35.4778 -82.2433 72° East 467 537 31,800 480 Climbing Atlanta Center
05:41PM 35.5192 -82.0842 72° East 477 549 32,300 480 Climbing Atlanta Center
05:42PM 35.5583 -81.9275 73° East 483 556 32,800 300 Climbing Atlanta Center
05:43PM 35.6011 -81.7656 72° East 483 556 33,000 60 Climbing Atlanta Center
05:44PM 35.6439 -81.6008 72° East 489 563 33,000  Level Atlanta Center
05:45PM 35.6864 -81.4358 72° East 489 563 33,000  Level Atlanta Center
05:46PM 35.7328 -81.2681 71° East 502 578 33,000  Level Atlanta Center
05:47PM 35.7764 -81.0772 74° East 515 593 33,000 -300 Level Atlanta Center
05:48PM 35.8181 -80.9067 73° East 515 593 32,500 -540 Descending Atlanta Center
05:49PM 35.8614 -80.7308 73° East 520 598 32,000 -540 Descending Atlanta Center
05:50PM 35.9025 -80.5550 74° East 525 604 31,500 -300 Descending Atlanta Center
05:52PM 35.9997 -80.1647 73° East 541 623 31,000 -180 Descending Washington Center
05:53PM 36.0461 -79.9850 72° East 519 597 31,000  Level Washington Center
05:54PM 36.1244 -79.8403 56° Northeast 495 570 31,000  Level Washington Center
05:55PM 36.2044 -79.6978 55° Northeast 501 577 31,000  Level Washington Center
05:56PM 36.2822 -79.5575 55° Northeast 501 577 31,000 -360 Level Washington Center
05:57PM 36.3619 -79.4222 54° Northeast 496 571 30,300 -840 Descending Washington Center
05:58PM 36.4328 -79.2889 57° Northeast 501 577 29,400 -1,020 Descending Washington Center
05:59PM 36.5122 -79.1453 55° Northeast 506 582 28,400 -1,080 Descending Washington Center
06:00PM 36.6044 -78.9867 54° Northeast 501 577 27,300 -1,080 Descending Washington Center
06:01PM 36.6839 -78.8372 56° Northeast 506 582 26,300 -1,020 Descending Washington Center
06:02PM 36.7650 -78.6903 55° Northeast 512 589 25,300 -720 Descending Washington Center
06:03PM 36.8436 -78.5481 55° Northeast 507 583 25,000 -180 Descending Washington Center
06:04PM 36.9272 -78.4578 41° Northeast 487 560 25,000  Level Washington Center
06:05PM 37.0253 -78.3678 36° Northeast 447 514 25,000  Level Washington Center
06:06PM 37.1211 -78.2772 37° Northeast 436 502 25,000  Level Washington Center
06:07PM 37.2297 -78.1794 36° Northeast 430 495 25,000 -300 Level Washington Center
06:08PM 37.3128 -78.1014 37° Northeast 425 489 24,500 -780 Descending Washington Center
06:09PM 37.4128 -78.0000 39° Northeast 432 497 23,500 -1,320 Descending Washington Center
06:10PM 37.5169 -77.9039 36° Northeast 446 513 22,000 -780 Descending Washington Center
06:11PM 37.6167 -77.8097 37° Northeast 446 513 22,000  Level Washington Center
06:12PM 37.7122 -77.7181 37° Northeast 439 505 22,000 -420 Level Washington Center
06:13PM 37.8056 -77.6261 38° Northeast 428 493 21,200 -1,620 Descending Washington Center
06:14PM 37.9031 -77.5339 37° Northeast 428 493 18,900 -2,340 Descending Washington Center
06:15PM 38.0006 -77.4389 38° Northeast 428 493 16,600 -2,580 Descending Washington Center
06:16PM 38.1019 -77.3464 36° Northeast 423 487 13,800 -3,300 Descending Washington Center
06:17PM 38.1867 -77.2614 38° Northeast 399 459 10,000 -1,500 Descending Washington Center
06:18PM 38.2667 -77.2050 29° Northeast 338 389 10,800 -300 Climbing Washington Center
06:19PM 38.3439 -77.1933 North 294 338 9,500 -1,380 Descending Washington Center
06:20PM 38.3886 -77.1200 52° Northeast 266 306 8,100 -1,200 Descending Washington Center
06:21PM 38.4353 -77.0547 48° Northeast 255 293 7,200 -600 Descending Washington Center
06:22PM 38.5006 -77.0189 23° Northeast 249 287 6,900 -900 Descending Washington Center
06:23PM 38.5631 -77.0122 North 227 261 5,500 -1,260 Descending Washington Center
06:24PM 38.6256 -77.0186 355° North 221 254 4,400 -1,200 Descending Washington Center
06:25PM 38.6667 -77.0167 North 227 261 3,600 -1,260 Descending Potomac TRACON
06:26PM 38.7167 -77.0167 360° North 197 227 2,400 -1,140 Descending Potomac TRACON
06:27PM 38.7833 -77.0333 349° North 186 214 1,400 -900 Descending Potomac TRACON
06:28PM 38.8167 -77.0333 360° North 141 162 700 -780 Descending Potomac TRACON
06:30PM 38.8500 -77.0333 North  Level FlightAware Approximate
06:37PM 38.8519 -77.0377 North  Level Estimated